createdAt,value
2022-10-28T00:02:21.231Z,26.67
2022-10-28T00:07:23.944Z,50.47
2022-10-28T00:12:26.620Z,42.28
2022-10-28T00:17:29.354Z,65.78
2022-10-28T00:22:31.969Z,36.97
2022-10-28T00:27:34.828Z,37.97
2022-10-28T00:32:37.510Z,44.33
2022-10-28T00:37:40.147Z,31.33
2022-10-28T00:42:42.848Z,25.17
2022-10-28T00:47:56.004Z,24.33
2022-10-28T00:53:03.448Z,26.08
2022-10-28T00:58:08.479Z,30.93
2022-10-28T01:03:11.320Z,25.65
2022-10-28T01:08:14.520Z,22.52
2022-10-28T01:13:22.715Z,22.83
2022-10-28T01:18:40.569Z,20.20
2022-10-28T01:23:52.238Z,24.37
2022-10-28T01:29:22.593Z,24.00
2022-10-28T01:34:31.661Z,22.35
2022-10-28T01:39:38.931Z,44.58
2022-10-28T01:44:51.819Z,23.75
2022-10-28T01:49:56.805Z,51.63
2022-10-28T01:55:10.910Z,30.60
2022-10-28T02:00:14.190Z,29.70
2022-10-28T02:05:53.448Z,26.52
2022-10-28T02:11:03.166Z,21.67
2022-10-28T02:16:20.762Z,18.97
2022-10-28T02:21:42.638Z,19.60
2022-10-28T02:26:55.653Z,22.65
2022-10-28T02:32:12.198Z,21.45
2022-10-28T02:37:33.989Z,21.55
2022-10-28T02:42:50.701Z,18.80
2022-10-28T02:48:02.831Z,21.77
2022-10-28T02:53:15.749Z,28.70
2022-10-28T02:58:19.357Z,31.45
2022-10-28T03:03:22.191Z,41.85
2022-10-28T03:08:25.638Z,28.90
2022-10-28T03:13:28.299Z,47.35
2022-10-28T03:18:31.008Z,26.33
2022-10-28T03:23:33.669Z,24.52
2022-10-28T03:28:36.441Z,25.00
2022-10-28T03:33:39.183Z,23.90
2022-10-28T03:38:41.869Z,24.77
2022-10-28T03:43:44.818Z,32.85
2022-10-28T03:48:47.568Z,24.73
2022-10-28T03:53:50.258Z,31.55
2022-10-28T04:04:00.580Z,22.38
2022-10-28T04:09:03.519Z,27.42
2022-10-28T04:14:06.301Z,23.92
2022-10-28T04:19:09.120Z,21.10
2022-10-28T04:24:11.796Z,20.77
2022-10-28T04:29:14.390Z,25.77
2022-10-28T04:34:17.017Z,20.70
2022-10-28T04:39:19.660Z,23.55
2022-10-28T04:44:22.368Z,19.45
2022-10-28T04:49:25.009Z,18.13
2022-10-28T04:54:28.122Z,19.02
2022-10-28T04:59:30.868Z,18.58
2022-10-28T05:04:33.488Z,20.05
2022-10-28T05:09:36.324Z,33.10
2022-10-28T05:14:39.002Z,22.67
2022-10-28T05:19:42.498Z,22.70
2022-10-28T05:24:45.359Z,19.98
2022-10-28T05:29:48.060Z,20.02
2022-10-28T05:34:50.852Z,18.30
2022-10-28T05:39:53.850Z,23.20
2022-10-28T05:44:56.592Z,23.50
2022-10-28T05:49:59.601Z,21.55
2022-10-28T05:55:02.667Z,17.60
2022-10-28T06:00:06.898Z,21.25
2022-10-28T06:05:15.760Z,19.80
2022-10-28T06:10:18.749Z,20.98
2022-10-28T06:15:20.241Z,18.27
2022-10-28T06:20:23.011Z,19.17
2022-10-28T06:25:26.527Z,19.95
2022-10-28T06:30:29.238Z,24.90
2022-10-28T06:39:38.599Z,26.90
2022-10-28T06:44:41.529Z,31.02
2022-10-28T06:49:45.839Z,31.13
2022-10-28T06:54:48.594Z,27.63
2022-10-28T06:59:51.276Z,27.00
2022-10-28T07:04:54.122Z,32.30
2022-10-28T07:09:56.865Z,32.45
2022-10-28T07:14:59.653Z,41.17
2022-10-28T07:20:02.350Z,42.60
2022-10-28T07:25:05.398Z,41.33
2022-10-28T07:30:08.891Z,47.23
2022-10-28T07:35:11.637Z,48.47
2022-10-28T07:40:15.027Z,38.53
2022-10-28T07:45:18.884Z,32.83
2022-10-28T07:50:21.718Z,27.08
2022-10-28T07:55:24.509Z,30.97
2022-10-28T08:00:27.275Z,28.52
2022-10-28T08:05:29.981Z,28.42
2022-10-28T08:10:32.863Z,25.37
2022-10-28T08:15:35.943Z,22.90
2022-10-28T08:20:38.716Z,20.87
2022-10-28T08:25:52.280Z,26.88
2022-10-28T08:31:08.390Z,31.95
2022-10-28T08:36:14.033Z,38.37
2022-10-28T08:41:30.257Z,39.85
2022-10-28T08:46:54.804Z,39.90
2022-10-28T08:52:06.259Z,27.92
2022-10-28T08:57:18.116Z,22.58
2022-10-28T09:02:28.817Z,21.40
2022-10-28T09:07:34.127Z,19.52
2022-10-28T09:13:03.507Z,16.80
2022-10-28T09:18:26.543Z,18.42
2022-10-28T09:23:34.073Z,20.08
2022-10-28T09:29:09.990Z,19.57
2022-10-28T09:34:47.415Z,23.30
2022-10-28T09:40:01.735Z,24.00
2022-10-28T09:45:14.199Z,31.02
2022-10-28T09:50:21.207Z,28.52
2022-10-28T09:55:24.580Z,25.67
2022-10-28T10:00:27.368Z,24.08
2022-10-28T10:05:33.430Z,25.90
2022-10-28T10:11:19.642Z,29.73
2022-10-28T10:16:44.677Z,29.13
2022-10-28T10:21:52.977Z,29.67
2022-10-28T10:26:56.954Z,24.05
2022-10-28T10:32:27.416Z,25.53
2022-10-28T10:37:33.370Z,27.63
2022-10-28T10:42:42.710Z,23.30
2022-10-28T10:48:20.791Z,69.23
2022-10-28T10:53:28.018Z,54.25
2022-10-28T10:58:38.009Z,58.67
2022-10-28T11:04:11.406Z,48.83
2022-10-28T11:09:37.570Z,34.05
2022-10-28T11:14:53.476Z,26.23
2022-10-28T11:19:59.220Z,22.88
2022-10-28T11:25:20.629Z,20.00
2022-10-28T11:30:36.009Z,25.58
2022-10-28T11:35:38.917Z,25.90
2022-10-28T11:40:53.887Z,21.33
2022-10-28T11:46:04.043Z,17.05
2022-10-28T11:51:31.388Z,15.53
2022-10-28T11:56:46.097Z,15.55
2022-10-28T12:02:19.685Z,16.30
2022-10-28T12:07:57.789Z,14.60
2022-10-28T12:13:24.148Z,12.15
2022-10-28T12:18:34.326Z,13.33
2022-10-28T12:23:39.494Z,15.80
2022-10-28T12:28:57.201Z,14.32
2022-10-28T12:34:04.922Z,14.00
2022-10-28T12:39:23.345Z,15.20
2022-10-28T12:44:28.585Z,18.30
2022-10-28T12:49:37.427Z,19.88
2022-10-28T12:54:53.906Z,18.00
2022-10-28T13:00:20.464Z,17.17
2022-10-28T13:05:31.286Z,16.08
2022-10-28T13:11:06.966Z,17.73
2022-10-28T13:16:15.355Z,18.23
2022-10-28T13:21:33.593Z,19.73
2022-10-28T13:26:41.362Z,18.13
2022-10-28T13:31:48.209Z,22.60
2022-10-28T13:37:00.497Z,20.37
2022-10-28T13:42:26.345Z,20.67
2022-10-28T13:47:36.868Z,20.35
2022-10-28T13:53:18.332Z,20.67
2022-10-28T13:58:23.976Z,21.77
2022-10-28T14:03:28.225Z,18.47
2022-10-28T14:08:42.113Z,17.95
2022-10-28T14:13:56.971Z,17.77
2022-10-28T14:19:04.781Z,18.10
2022-10-28T14:24:09.195Z,17.40
2022-10-28T14:29:30.143Z,14.10
2022-10-28T14:34:38.041Z,15.30
2022-10-28T14:40:15.785Z,15.00
2022-10-28T14:45:21.578Z,14.80
2022-10-28T14:50:34.452Z,13.45
2022-10-28T14:55:37.646Z,13.50
2022-10-28T15:00:48.270Z,17.95
2022-10-28T15:05:51.002Z,12.70
2022-10-28T15:10:53.962Z,18.53
2022-10-28T15:15:59.402Z,17.83
2022-10-28T15:21:15.561Z,16.77
2022-10-28T15:26:19.200Z,17.95
2022-10-28T15:31:21.960Z,16.58
2022-10-28T15:36:26.769Z,18.70
2022-10-28T15:41:29.531Z,15.88
2022-10-28T15:46:34.238Z,17.23
2022-10-28T15:51:36.984Z,17.52
2022-10-28T15:57:00.050Z,18.48
2022-10-28T16:02:03.085Z,17.33
2022-10-28T16:07:08.711Z,20.60
2022-10-28T16:12:17.777Z,18.30
2022-10-28T16:17:33.708Z,21.10
2022-10-28T16:22:37.777Z,20.75
2022-10-28T16:27:40.807Z,19.77
2022-10-28T16:32:49.117Z,17.98
2022-10-28T16:37:55.529Z,19.57
2022-10-28T16:42:58.929Z,17.60
2022-10-28T16:48:01.698Z,20.45
2022-10-28T16:53:04.579Z,20.67
2022-10-28T16:58:08.047Z,19.20
2022-10-28T17:03:15.670Z,21.73
2022-10-28T17:08:31.063Z,24.73
2022-10-28T17:13:41.438Z,22.52
2022-10-28T17:18:44.807Z,22.53
2022-10-28T17:23:47.660Z,28.27
2022-10-28T17:28:53.664Z,26.13
2022-10-28T17:33:56.650Z,24.38
2022-10-28T17:38:59.562Z,22.63
2022-10-28T17:44:02.801Z,24.97
2022-10-28T17:49:08.855Z,26.63
2022-10-28T17:54:12.107Z,31.67
2022-10-28T17:59:15.342Z,26.75
2022-10-28T18:04:20.128Z,25.63
2022-10-28T18:09:23.657Z,29.77
2022-10-28T18:14:26.448Z,25.23
2022-10-28T18:19:29.466Z,29.33
2022-10-28T18:24:32.382Z,28.48
2022-10-28T18:29:35.098Z,27.02
2022-10-28T18:34:37.947Z,24.90
2022-10-28T18:39:40.789Z,25.25
2022-10-28T18:44:43.599Z,26.13
2022-10-28T18:49:46.256Z,29.27
2022-10-28T18:54:48.968Z,30.63
2022-10-28T19:00:17.544Z,30.97
2022-10-28T19:05:14.555Z,32.55
2022-10-28T19:10:17.408Z,30.80
2022-10-28T19:15:20.238Z,31.17
2022-10-28T19:20:24.168Z,27.10
2022-10-28T19:25:27.070Z,29.80
2022-10-28T19:30:30.222Z,33.80
2022-10-28T19:35:33.995Z,31.03
2022-10-28T19:40:36.764Z,37.58
2022-10-28T19:45:39.570Z,36.08
2022-10-28T19:50:49.513Z,33.20
2022-10-28T19:55:57.433Z,39.05
2022-10-28T20:01:05.722Z,36.10
2022-10-28T20:06:14.111Z,27.58
2022-10-28T20:11:28.430Z,34.17
2022-10-28T20:16:33.428Z,34.93
2022-10-28T20:21:37.860Z,37.78
2022-10-28T20:26:40.943Z,47.47
2022-10-28T20:31:44.048Z,39.63
2022-10-28T20:36:46.912Z,48.03
2022-10-28T20:41:51.524Z,46.07
2022-10-28T20:46:54.270Z,39.67
2022-10-28T20:51:57.058Z,45.53
2022-10-28T20:56:59.821Z,47.78
2022-10-28T21:02:02.715Z,53.13
2022-10-28T21:07:05.648Z,47.80
2022-10-28T21:12:08.478Z,44.95
2022-10-28T21:17:11.202Z,48.60
2022-10-28T21:22:13.905Z,48.20
2022-10-28T21:27:16.674Z,47.58
2022-10-28T21:32:19.422Z,44.23
2022-10-28T21:37:22.108Z,48.90
2022-10-28T21:42:25.261Z,48.63
2022-10-28T21:47:28.601Z,43.97
2022-10-28T21:52:31.764Z,38.78
2022-10-28T21:57:34.440Z,46.43
2022-10-28T22:02:37.366Z,83.10
2022-10-28T22:07:40.142Z,45.40
2022-10-28T22:12:42.911Z,37.05
2022-10-28T22:17:45.660Z,118.20
2022-10-28T22:22:48.381Z,40.20
2022-10-28T22:27:51.169Z,39.53
2022-10-28T22:32:54.186Z,38.13
2022-10-28T22:37:57.197Z,34.85
2022-10-28T22:43:00.121Z,35.58
2022-10-28T22:48:02.890Z,67.00
2022-10-28T22:53:05.688Z,41.50
2022-10-28T22:58:08.421Z,44.60
2022-10-28T23:03:11.690Z,49.63
2022-10-28T23:08:17.485Z,48.38
2022-10-28T23:13:20.132Z,57.27
2022-10-28T23:18:28.335Z,56.17
2022-10-28T23:23:31.144Z,38.23
2022-10-28T23:28:34.024Z,40.50
2022-10-28T23:33:36.758Z,38.08
2022-10-28T23:38:39.488Z,42.33
2022-10-28T23:43:43.112Z,43.95
2022-10-28T23:48:45.971Z,39.00
2022-10-28T23:53:48.690Z,41.50
2022-10-28T23:58:51.369Z,114.82
